Time;durP1;ratioP1;P1;durP2;ratioP2;P2;SDS_P1;SDS_P2;PMS_P1;PMS_P2;Temp;Humidity;BMP_temperature;BMP_pressure;BME280_temperature;BME280_humidity;BME280_pressure;Samples;Min_cycle;Max_cycle;Signal;HPM_P1;HPM_P2
2023/04/17 00:00:31;;;;;;;1.13;1.03;;;;;;;8.83;100.00;96525.78;5110700;28;20199;-72
2023/04/17 00:03:00;;;;;;;0.50;0.50;;;;;;;8.86;100.00;96528.09;5107060;28;20226;-72
2023/04/17 00:05:26;;;;;;;0.37;0.37;;;;;;;8.76;100.00;96531.84;5111671;28;20214;-74
2023/04/17 00:07:54;;;;;;;1.07;0.73;;;;;;;8.77;100.00;96529.06;5107927;28;20210;-72
2023/04/17 00:10:20;;;;;;;1.43;0.90;;;;;;;8.70;100.00;96525.41;5109112;27;20195;-72
2023/04/17 00:12:47;;;;;;;0.67;0.67;;;;;;;8.74;100.00;96523.28;5108682;28;21141;-75
2023/04/17 00:15:14;;;;;;;1.03;0.60;;;;;;;8.81;100.00;96519.88;5109664;28;20210;-73
2023/04/17 00:17:40;;;;;;;0.70;0.70;;;;;;;8.74;100.00;96518.03;5110115;28;20605;-72
2023/04/17 00:20:09;;;;;;;0.73;0.73;;;;;;;8.90;100.00;96515.47;5108884;28;20211;-73
2023/04/17 00:22:36;;;;;;;0.50;0.50;;;;;;;8.74;100.00;96516.22;5111312;28;20214;-74
2023/04/17 00:25:03;;;;;;;0.83;0.83;;;;;;;8.79;100.00;96508.69;5108962;28;20238;-72
2023/04/17 00:27:30;;;;;;;1.33;1.23;;;;;;;8.85;100.00;96515.94;5108898;28;20210;-72
2023/04/17 00:29:56;;;;;;;0.77;0.77;;;;;;;8.87;100.00;96508.72;5108674;27;20211;-74
2023/04/17 00:32:23;;;;;;;1.10;0.97;;;;;;;8.92;100.00;96511.66;5112182;27;20580;-72
2023/04/17 00:34:50;;;;;;;2.83;0.77;;;;;;;8.83;100.00;96515.25;5112979;27;20207;-72
2023/04/17 00:37:18;;;;;;;0.70;0.63;;;;;;;8.96;100.00;96506.94;5112957;27;20233;-72
2023/04/17 00:39:44;;;;;;;0.60;0.60;;;;;;;8.88;100.00;96510.34;5113281;27;20210;-72
2023/04/17 00:42:11;;;;;;;0.60;0.60;;;;;;;8.85;100.00;96510.69;5114675;27;21582;-73
2023/04/17 00:44:37;;;;;;;0.60;0.60;;;;;;;8.80;100.00;96507.72;5110682;27;20199;-72
2023/04/17 00:47:04;;;;;;;0.60;0.60;;;;;;;8.73;100.00;96506.72;5114954;27;20221;-72
2023/04/17 00:49:30;;;;;;;0.67;0.50;;;;;;;8.77;100.00;96508.03;5111584;27;20210;-72
2023/04/17 00:51:58;;;;;;;0.60;0.60;;;;;;;8.72;100.00;96505.06;5111764;27;20202;-73
2023/04/17 00:54:26;;;;;;;2.40;0.60;;;;;;;8.91;100.00;96502.16;5115976;27;20226;-73
2023/04/17 00:56:56;;;;;;;1.23;0.70;;;;;;;8.89;100.00;96503.31;5112623;27;20206;-72
2023/04/17 00:59:23;;;;;;;0.77;0.77;;;;;;;8.83;100.00;96507.38;5115402;27;21108;-74
2023/04/17 01:01:50;;;;;;;0.43;0.43;;;;;;;8.85;100.00;96499.38;5113662;27;20214;-73
2023/04/17 01:04:16;;;;;;;0.33;0.33;;;;;;;8.87;100.00;96508.72;5114687;27;20679;-73
2023/04/17 01:06:43;;;;;;;0.50;0.50;;;;;;;8.88;100.00;96499.84;5114674;27;20206;-71
2023/04/17 01:09:09;;;;;;;0.30;0.30;;;;;;;8.89;100.00;96501.50;5113350;27;20228;-71
2023/04/17 01:11:38;;;;;;;0.43;0.43;;;;;;;8.83;100.00;96496.88;5112024;27;20218;-71
2023/04/17 01:14:04;;;;;;;0.73;0.73;;;;;;;8.80;100.00;96502.44;5115147;27;20284;-71
2023/04/17 01:16:31;;;;;;;0.53;0.53;;;;;;;8.71;100.00;96495.53;5113400;27;20202;-71
2023/04/17 01:18:58;;;;;;;0.37;0.37;;;;;;;8.76;100.00;96498.50;5111335;27;20570;-72
2023/04/17 01:21:24;;;;;;;0.53;0.53;;;;;;;8.73;100.00;96500.63;5113298;27;20218;-71
2023/04/17 01:23:51;;;;;;;0.90;0.63;;;;;;;8.78;100.00;96493.94;5110494;27;20219;-73
2023/04/17 01:26:21;;;;;;;0.70;0.70;;;;;;;8.72;100.00;96499.81;5112531;27;20304;-70
2023/04/17 01:28:51;;;;;;;0.33;0.33;;;;;;;8.78;100.00;96498.34;5111631;27;20207;-73
2023/04/17 01:31:18;;;;;;;0.50;0.50;;;;;;;8.79;100.00;96498.16;5115040;27;20625;-72
2023/04/17 01:33:44;;;;;;;0.47;0.47;;;;;;;8.63;100.00;96498.13;5111014;27;20745;-71
2023/04/17 01:36:11;;;;;;;0.53;0.53;;;;;;;8.73;100.00;96501.47;5111760;27;20217;-71
2023/04/17 01:38:38;;;;;;;0.60;0.50;;;;;;;8.69;100.00;96496.66;5113326;27;20202;-71
2023/04/17 01:41:08;;;;;;;0.50;0.50;;;;;;;8.77;100.00;96502.78;5113347;27;20218;-71
2023/04/17 01:43:38;;;;;;;0.57;0.57;;;;;;;8.88;100.00;96505.09;5114172;27;20595;-72
2023/04/17 01:46:05;;;;;;;1.67;1.20;;;;;;;8.70;100.00;96501.75;5110613;27;20260;-71
2023/04/17 01:48:32;;;;;;;0.60;0.60;;;;;;;8.71;100.00;96503.41;5112144;27;20207;-71
2023/04/17 01:50:58;;;;;;;1.13;1.03;;;;;;;8.78;100.00;96504.44;5113856;27;20198;-72
2023/04/17 01:53:25;;;;;;;1.27;0.83;;;;;;;8.81;100.00;96505.91;5110748;27;20242;-70
2023/04/17 01:55:51;;;;;;;0.53;0.53;;;;;;;8.75;100.00;96503.91;5114781;27;20217;-71
2023/04/17 01:58:18;;;;;;;0.57;0.57;;;;;;;8.86;100.00;96500.97;5112748;27;20210;-71
2023/04/17 02:00:47;;;;;;;1.03;0.83;;;;;;;9.01;100.00;96499.38;5114071;27;20671;-71
2023/04/17 02:03:13;;;;;;;0.40;0.40;;;;;;;8.92;100.00;96501.16;5112538;27;20222;-71
2023/04/17 02:05:39;;;;;;;1.60;0.50;;;;;;;8.97;100.00;96506.75;5114978;27;20959;-71
2023/04/17 02:08:06;;;;;;;0.50;0.50;;;;;;;8.94;100.00;96504.47;5113706;27;21123;-72
2023/04/17 02:10:32;;;;;;;0.53;0.53;;;;;;;8.95;100.00;96495.59;5109849;27;20195;-72
2023/04/17 02:12:59;;;;;;;2.13;0.60;;;;;;;8.94;100.00;96498.41;5110634;27;20222;-71
2023/04/17 02:15:25;;;;;;;0.77;0.73;;;;;;;8.85;100.00;96499.38;5110658;27;20210;-71
2023/04/17 02:17:53;;;;;;;1.17;0.70;;;;;;;8.88;100.00;96488.53;5111179;27;20203;-74
2023/04/17 02:20:20;;;;;;;0.23;0.23;;;;;;;8.82;100.00;96497.03;5110057;27;20198;-71
2023/04/17 02:22:46;;;;;;;0.73;0.73;;;;;;;8.77;100.00;96497.53;5109532;27;20487;-72
2023/04/17 02:25:13;;;;;;;1.53;1.00;;;;;;;8.72;100.00;96499.81;5110410;27;20690;-71
2023/04/17 02:27:39;;;;;;;0.60;0.60;;;;;;;8.75;100.00;96496.84;5111913;27;20952;-72
2023/04/17 02:30:07;;;;;;;0.47;0.47;;;;;;;8.76;100.00;96501.13;5113470;27;20925;-71
2023/04/17 02:32:33;;;;;;;0.37;0.37;;;;;;;8.79;100.00;96500.81;5111429;27;20614;-72
2023/04/17 02:35:01;;;;;;;1.53;0.63;;;;;;;8.90;100.00;96503.16;5111615;27;20226;-71
2023/04/17 02:37:28;;;;;;;0.60;0.60;;;;;;;8.83;100.00;96499.50;5112693;27;20284;-72
2023/04/17 02:39:54;;;;;;;0.50;0.50;;;;;;;8.72;100.00;96504.25;5109982;27;20210;-71
2023/04/17 02:42:20;;;;;;;0.87;0.77;;;;;;;8.82;100.00;96503.13;5109139;27;20565;-71
2023/04/17 02:44:47;;;;;;;0.43;0.43;;;;;;;8.78;100.00;96499.19;5109184;27;20214;-71
2023/04/17 02:47:13;;;;;;;0.40;0.40;;;;;;;8.71;100.00;96500.78;5108686;27;20211;-73
2023/04/17 02:49:40;;;;;;;1.13;0.80;;;;;;;8.64;100.00;96506.81;5108837;27;20297;-71
2023/04/17 02:52:08;;;;;;;0.60;0.60;;;;;;;8.81;100.00;96498.84;5109052;27;20643;-71
2023/04/17 02:54:34;;;;;;;1.90;1.10;;;;;;;8.78;100.00;96508.84;5111215;27;20639;-70
2023/04/17 02:57:01;;;;;;;1.10;0.80;;;;;;;8.69;100.00;96500.13;5111334;27;20195;-72
2023/04/17 02:59:28;;;;;;;0.50;0.50;;;;;;;8.72;100.00;96494.56;5109828;27;20293;-72
2023/04/17 03:01:58;;;;;;;0.57;0.57;;;;;;;8.68;100.00;96503.75;5112050;27;20645;-71
2023/04/17 03:04:26;;;;;;;0.80;0.80;;;;;;;8.74;100.00;96500.44;5110144;27;20272;-72
2023/04/17 03:06:52;;;;;;;0.63;0.63;;;;;;;8.69;100.00;96505.38;5109783;27;20306;-72
2023/04/17 03:09:22;;;;;;;0.73;0.63;;;;;;;8.78;100.00;96499.19;5109673;27;20255;-71
2023/04/17 03:11:49;;;;;;;0.80;0.80;;;;;;;8.72;100.00;96499.00;5110588;27;20199;-72
2023/04/17 03:14:15;;;;;;;1.03;0.60;;;;;;;8.74;100.00;96497.81;5113488;27;20233;-71
2023/04/17 03:16:42;;;;;;;0.30;0.30;;;;;;;8.68;100.00;96502.91;5108683;27;20203;-71
2023/04/17 03:19:08;;;;;;;0.87;0.47;;;;;;;8.66;100.00;96492.56;5109331;27;20283;-71
2023/04/17 03:21:35;;;;;;;0.77;0.63;;;;;;;8.75;100.00;96509.19;5111504;27;20219;-71
2023/04/17 03:24:01;;;;;;;0.73;0.73;;;;;;;8.65;100.00;96498.78;5112334;27;20227;-71
2023/04/17 03:26:29;;;;;;;0.40;0.40;;;;;;;8.75;100.00;96496.84;5112021;27;20211;-71
2023/04/17 03:28:55;;;;;;;0.90;0.90;;;;;;;8.62;100.00;96501.75;5109646;27;20586;-72
2023/04/17 03:31:24;;;;;;;0.60;0.60;;;;;;;8.71;100.00;96510.47;5110412;27;20300;-71
2023/04/17 03:33:50;;;;;;;0.83;0.83;;;;;;;8.70;100.00;96504.38;5110470;27;20745;-71
2023/04/17 03:36:17;;;;;;;0.43;0.43;;;;;;;8.72;100.00;96502.44;5110169;27;20211;-73
2023/04/17 03:38:44;;;;;;;1.03;1.03;;;;;;;8.75;100.00;96503.91;5112493;27;20768;-72
2023/04/17 03:41:10;;;;;;;2.00;1.47;;;;;;;8.75;100.00;96504.72;5114460;27;20242;-71
2023/04/17 03:43:38;;;;;;;0.97;0.97;;;;;;;8.81;100.00;96511.97;5111297;27;20878;-71
2023/04/17 03:46:05;;;;;;;1.93;1.27;;;;;;;8.74;100.00;96504.91;5111774;27;20206;-72
2023/04/17 03:48:31;;;;;;;0.97;0.97;;;;;;;8.74;100.00;96513.59;5110189;27;20229;-71
2023/04/17 03:50:57;;;;;;;2.87;1.10;;;;;;;8.76;100.00;96516.91;5109919;27;20237;-72
2023/04/17 03:53:24;;;;;;;1.17;1.17;;;;;;;8.79;100.00;96513.13;5107857;28;20695;-71
2023/04/17 03:55:50;;;;;;;1.10;1.10;;;;;;;8.81;100.00;96514.63;5112761;28;20206;-72
2023/04/17 03:58:17;;;;;;;0.47;0.47;;;;;;;8.78;100.00;96514.09;5113357;28;20678;-72
2023/04/17 04:00:45;;;;;;;3.40;0.87;;;;;;;8.83;100.00;96511.81;5112140;28;20217;-73
2023/04/17 04:03:11;;;;;;;0.53;0.53;;;;;;;8.77;100.00;96521.16;5111714;28;20237;-71
2023/04/17 04:05:38;;;;;;;0.50;0.50;;;;;;;8.72;100.00;96515.56;5115173;27;20198;-71
2023/04/17 04:08:04;;;;;;;0.93;0.80;;;;;;;8.69;100.00;96523.78;5113898;27;21007;-72
2023/04/17 04:10:31;;;;;;;2.97;1.00;;;;;;;8.70;100.00;96517.53;5114646;27;20679;-71
2023/04/17 04:12:57;;;;;;;2.70;1.27;;;;;;;8.69;100.00;96522.94;5115317;27;20648;-71
2023/04/17 04:15:24;;;;;;;0.80;0.80;;;;;;;8.66;100.00;96520.63;5114929;27;20222;-71
2023/04/17 04:17:52;;;;;;;2.77;1.17;;;;;;;8.71;100.00;96521.00;5113159;27;20683;-71
2023/04/17 04:20:18;;;;;;;1.03;0.97;;;;;;;8.61;100.00;96526.34;5115134;27;20208;-72
2023/04/17 04:22:45;;;;;;;0.60;0.60;;;;;;;8.57;100.00;96522.41;5115861;27;20233;-71
2023/04/17 04:25:11;;;;;;;1.13;0.77;;;;;;;8.47;100.00;96525.31;5114181;27;21220;-71
2023/04/17 04:27:38;;;;;;;0.47;0.47;;;;;;;8.57;100.00;96529.47;5114821;27;20982;-74
2023/04/17 04:30:09;;;;;;;1.23;0.80;;;;;;;8.54;100.00;96527.13;5114434;27;20206;-74
2023/04/17 04:32:36;;;;;;;0.63;0.63;;;;;;;8.43;100.00;96529.25;5115618;27;20280;-71
2023/04/17 04:35:05;;;;;;;0.70;0.70;;;;;;;8.58;100.00;96528.50;5115037;27;20237;-72
2023/04/17 04:37:31;;;;;;;2.40;1.30;;;;;;;8.50;100.00;96537.16;5114610;27;20753;-71
2023/04/17 04:40:03;;;;;;;1.90;1.13;;;;;;;8.58;100.00;96528.50;5113382;27;20203;-71
2023/04/17 04:42:30;;;;;;;6.03;1.43;;;;;;;8.64;100.00;96533.94;5116262;27;20226;-72
2023/04/17 04:44:56;;;;;;;0.97;0.70;;;;;;;8.59;100.00;96525.69;5113802;27;20214;-72
2023/04/17 04:47:23;;;;;;;0.53;0.53;;;;;;;8.62;100.00;96525.38;5114650;27;20754;-71
2023/04/17 04:49:49;;;;;;;1.63;1.17;;;;;;;8.55;100.00;96534.03;5116105;27;20209;-72
2023/04/17 04:52:17;;;;;;;1.00;1.00;;;;;;;8.65;100.00;96530.31;5110916;27;20257;-71
2023/04/17 04:54:44;;;;;;;2.20;1.33;;;;;;;8.66;100.00;96533.78;5114930;27;20721;-71
2023/04/17 04:57:10;;;;;;;0.50;0.50;;;;;;;8.65;100.00;96534.75;5113555;27;20206;-73
2023/04/17 04:59:37;;;;;;;11.77;0.90;;;;;;;8.67;100.00;96536.22;5112835;27;20214;-73
2023/04/17 05:02:03;;;;;;;1.77;0.90;;;;;;;8.75;100.00;96544.13;5115765;27;20218;-72
2023/04/17 05:04:30;;;;;;;2.20;0.53;;;;;;;8.69;100.00;96546.59;5113341;27;20569;-73
2023/04/17 05:06:56;;;;;;;0.70;0.70;;;;;;;8.56;100.00;96547.00;5114882;27;20236;-71
2023/04/17 05:09:24;;;;;;;1.83;1.73;;;;;;;8.67;100.00;96546.75;5112218;27;20198;-71
2023/04/17 05:11:52;;;;;;;1.60;0.90;;;;;;;8.62;100.00;96551.66;5114622;27;20228;-71
2023/04/17 05:14:19;;;;;;;0.87;0.87;;;;;;;8.67;100.00;96546.75;5111139;27;20289;-74
2023/04/17 05:16:45;;;;;;;1.53;1.40;;;;;;;8.71;100.00;96550.69;5113205;27;20851;-71
2023/04/17 05:19:12;;;;;;;0.80;0.77;;;;;;;8.71;100.00;96550.69;5113350;27;20590;-72
2023/04/17 05:21:38;;;;;;;1.57;1.07;;;;;;;8.78;100.00;96549.09;5114702;27;20207;-73
2023/04/17 05:24:05;;;;;;;1.40;1.37;;;;;;;8.71;100.00;96555.94;5111075;27;20238;-71
2023/04/17 05:26:33;;;;;;;2.10;1.20;;;;;;;8.75;100.00;96554.66;5112680;27;20214;-72
2023/04/17 05:28:59;;;;;;;0.53;0.53;;;;;;;8.68;100.00;96556.28;5113494;27;20221;-72
2023/04/17 05:31:26;;;;;;;0.90;0.90;;;;;;;8.75;100.00;96557.28;5113025;27;20203;-71
2023/04/17 05:33:52;;;;;;;0.73;0.73;;;;;;;8.62;100.00;96559.53;5114084;27;20218;-73
2023/04/17 05:36:19;;;;;;;1.10;1.00;;;;;;;8.72;100.00;96560.22;5111950;27;21194;-74
2023/04/17 05:38:45;;;;;;;2.07;1.40;;;;;;;8.74;100.00;96566.13;5111131;27;20210;-71
2023/04/17 05:41:12;;;;;;;0.60;0.60;;;;;;;8.72;100.00;96560.22;5110028;27;20327;-72
2023/04/17 05:43:41;;;;;;;0.87;0.87;;;;;;;8.84;100.00;96566.84;5113603;27;20234;-74
2023/04/17 05:46:08;;;;;;;0.53;0.53;;;;;;;8.83;100.00;96565.19;5114109;27;20202;-72
2023/04/17 05:48:34;;;;;;;1.33;0.93;;;;;;;8.79;100.00;96569.13;5110366;27;21174;-73
2023/04/17 05:51:01;;;;;;;1.70;1.60;;;;;;;8.83;100.00;96567.81;5110642;27;20195;-72
2023/04/17 05:53:29;;;;;;;1.03;1.00;;;;;;;8.92;100.00;96569.50;5108674;27;20290;-72
2023/04/17 05:55:55;;;;;;;2.70;1.93;;;;;;;8.92;100.00;96568.69;5112914;27;20244;-72
2023/04/17 05:58:22;;;;;;;1.17;1.17;;;;;;;8.92;100.00;96566.84;5111920;27;20203;-74
2023/04/17 06:00:50;;;;;;;1.47;1.13;;;;;;;9.04;100.00;96576.13;5111681;27;20550;-73
2023/04/17 06:03:17;;;;;;;3.13;2.03;;;;;;;9.03;100.00;96571.84;5109951;27;20236;-73
2023/04/17 06:05:45;;;;;;;1.43;1.33;;;;;;;9.02;100.00;96570.19;5110469;27;20683;-71
2023/04/17 06:08:12;;;;;;;0.40;0.40;;;;;;;9.00;100.00;96572.16;5110287;27;20207;-72
2023/04/17 06:10:38;;;;;;;0.50;0.50;;;;;;;9.00;100.00;96579.22;5113581;27;20210;-71
2023/04/17 06:13:04;;;;;;;1.33;1.27;;;;;;;9.18;100.00;96573.69;5112246;27;20305;-73
2023/04/17 06:15:31;;;;;;;0.63;0.63;;;;;;;9.16;100.00;96577.47;5109394;27;20712;-75
2023/04/17 06:17:59;;;;;;;1.10;1.00;;;;;;;9.24;100.00;96582.72;5109815;27;20207;-72
2023/04/17 06:20:25;;;;;;;0.83;0.80;;;;;;;9.18;100.00;96576.31;5109346;27;20199;-72
2023/04/17 06:22:52;;;;;;;0.93;0.87;;;;;;;9.18;100.00;96583.41;5109808;27;20224;-73
2023/04/17 06:25:18;;;;;;;5.80;1.00;;;;;;;9.17;100.00;96593.06;5109582;27;20202;-71
2023/04/17 06:27:45;;;;;;;1.70;1.50;;;;;;;9.08;100.00;96594.03;5109041;27;20272;-72
2023/04/17 06:30:12;;;;;;;0.63;0.63;;;;;;;9.24;100.00;96593.25;5108560;27;20870;-72
2023/04/17 06:32:41;;;;;;;1.60;1.27;;;;;;;9.22;100.00;96589.97;5107920;27;20221;-71
2023/04/17 06:35:10;;;;;;;1.60;1.47;;;;;;;9.37;100.00;96588.38;5109136;27;20225;-71
2023/04/17 06:37:36;;;;;;;0.80;0.80;;;;;;;9.34;100.00;96588.69;5108187;27;20199;-73
2023/04/17 06:40:03;;;;;;;1.13;0.93;;;;;;;9.50;100.00;96594.81;5106266;27;20203;-72
2023/04/17 06:42:32;;;;;;;0.57;0.57;;;;;;;9.48;100.00;96593.31;5107798;27;20223;-71
2023/04/17 06:44:59;;;;;;;1.33;1.07;;;;;;;9.45;100.00;96589.19;5107207;27;20321;-72
2023/04/17 06:47:25;;;;;;;1.57;1.00;;;;;;;9.31;100.00;96594.28;5109282;27;20700;-73
2023/04/17 06:49:52;;;;;;;0.93;0.80;;;;;;;9.41;100.00;96590.50;5108577;27;20195;-72
2023/04/17 06:52:21;;;;;;;1.60;1.50;;;;;;;9.52;100.00;96594.63;5109747;27;20223;-72
2023/04/17 06:54:47;;;;;;;2.03;1.27;;;;;;;9.36;100.00;96592.00;5110795;27;20232;-72
2023/04/17 06:57:14;;;;;;;1.17;1.10;;;;;;;9.42;100.00;96600.06;5110441;27;20202;-74
2023/04/17 06:59:40;;;;;;;1.10;0.93;;;;;;;9.30;100.00;96601.31;5108252;27;20289;-71
2023/04/17 07:02:07;;;;;;;0.53;0.53;;;;;;;9.37;100.00;96598.91;5109310;27;20199;-74
2023/04/17 07:04:33;;;;;;;0.73;0.73;;;;;;;9.31;100.00;96605.59;5109205;27;20195;-74
2023/04/17 07:07:00;;;;;;;2.17;1.23;;;;;;;9.24;100.00;96607.25;5108120;27;20210;-73
2023/04/17 07:09:28;;;;;;;2.37;1.03;;;;;;;9.59;100.00;96607.00;5108201;27;20423;-71
2023/04/17 07:11:54;;;;;;;0.90;0.90;;;;;;;10.30;100.00;96608.03;5102541;27;20598;-75
2023/04/17 07:14:21;;;;;;;0.60;0.60;;;;;;;9.90;100.00;96600.09;5106109;27;20203;-73
2023/04/17 07:16:49;;;;;;;0.93;0.87;;;;;;;9.68;100.00;96611.28;5106692;27;20622;-74
2023/04/17 07:19:15;;;;;;;1.83;1.73;;;;;;;9.59;100.00;96611.44;5107780;27;20213;-73
2023/04/17 07:21:42;;;;;;;0.57;0.57;;;;;;;9.49;100.00;96616.00;5109014;27;20209;-72
2023/04/17 07:24:08;;;;;;;1.07;0.97;;;;;;;9.48;100.00;96619.63;5103197;27;20591;-74
2023/04/17 07:26:36;;;;;;;0.87;0.87;;;;;;;9.52;100.00;96613.91;5109026;27;20202;-74
2023/04/17 07:29:03;;;;;;;1.10;1.00;;;;;;;9.31;100.00;96623.19;5111415;27;20207;-73
2023/04/17 07:31:30;;;;;;;0.80;0.80;;;;;;;9.35;100.00;96625.34;5107190;27;20207;-71
2023/04/17 07:33:56;;;;;;;1.27;0.80;;;;;;;9.31;100.00;96628.47;5107055;27;20226;-72
2023/04/17 07:36:23;;;;;;;1.63;1.37;;;;;;;9.29;100.00;96625.16;5106940;27;20227;-71
2023/04/17 07:38:49;;;;;;;0.70;0.70;;;;;;;9.37;100.00;96622.56;5103665;27;20203;-74
2023/04/17 07:41:16;;;;;;;3.33;1.27;;;;;;;9.25;100.00;96635.19;5105856;27;20207;-74
2023/04/17 07:43:44;;;;;;;0.40;0.40;;;;;;;9.39;100.00;96633.75;5108744;27;20218;-72
2023/04/17 07:46:10;;;;;;;1.20;1.10;;;;;;;9.16;100.00;96630.88;5105948;27;20190;-72
2023/04/17 07:48:37;;;;;;;2.03;1.87;;;;;;;9.24;100.00;96635.31;5106947;27;20211;-73
2023/04/17 07:51:04;;;;;;;0.50;0.50;;;;;;;9.37;100.00;96638.34;5101718;28;20281;-72
2023/04/17 07:53:31;;;;;;;1.90;1.30;;;;;;;9.50;100.00;96636.09;5105891;27;20225;-72
2023/04/17 07:55:58;;;;;;;3.07;1.40;;;;;;;9.61;100.00;96627.88;5107557;27;20222;-72
2023/04/17 07:58:25;;;;;;;1.40;0.77;;;;;;;9.57;100.00;96624.75;5104667;28;20198;-71
2023/04/17 08:00:53;;;;;;;1.17;1.17;;;;;;;9.69;100.00;96629.53;5108489;28;20199;-72
2023/04/17 08:03:22;;;;;;;1.77;1.40;;;;;;;9.64;100.00;96633.63;5108160;28;20782;-72
2023/04/17 08:05:50;;;;;;;0.70;0.70;;;;;;;9.82;100.00;96629.88;5106375;28;21090;-74
2023/04/17 08:08:18;;;;;;;1.13;1.03;;;;;;;9.83;100.00;96634.16;5106739;28;21236;-74
2023/04/17 08:10:45;;;;;;;0.53;0.53;;;;;;;9.98;100.00;96635.19;5107499;28;20576;-72
2023/04/17 08:13:11;;;;;;;1.80;1.17;;;;;;;9.78;100.00;96631.19;5104926;28;20219;-72
2023/04/17 08:15:39;;;;;;;0.90;0.90;;;;;;;9.90;100.00;96634.31;5105727;28;21066;-74
2023/04/17 08:18:08;;;;;;;1.00;0.90;;;;;;;10.01;100.00;96639.31;5106285;28;20724;-71
2023/04/17 08:20:35;;;;;;;1.53;1.43;;;;;;;9.99;100.00;96636.84;5109720;27;20659;-72
2023/04/17 08:23:03;;;;;;;1.57;1.47;;;;;;;9.99;100.00;96636.00;5106447;28;20221;-75
2023/04/17 08:25:30;;;;;;;1.33;1.23;;;;;;;10.09;100.00;96634.03;5107085;28;20574;-72
2023/04/17 08:27:56;;;;;;;3.87;1.83;;;;;;;10.19;100.00;96642.63;5107725;27;20203;-72
2023/04/17 08:30:23;;;;;;;0.70;0.70;;;;;;;10.34;100.00;96641.78;5101695;28;20200;-74
2023/04/17 08:32:51;;;;;;;0.70;0.70;;;;;;;10.56;100.00;96633.19;5103016;27;20215;-75
2023/04/17 08:35:19;;;;;;;2.70;1.33;;;;;;;10.71;100.00;96636.78;5101880;28;20676;-72
2023/04/17 08:37:46;;;;;;;8.80;1.37;;;;;;;10.76;100.00;96640.56;5100472;28;21139;-73
2023/04/17 08:40:14;;;;;;;1.33;1.23;;;;;;;10.94;100.00;96634.06;5109677;28;20239;-72
2023/04/17 08:42:42;;;;;;;0.87;0.87;;;;;;;11.13;100.00;96638.97;5099287;28;20242;-72
2023/04/17 08:45:10;;;;;;;0.43;0.40;;;;;;;11.27;100.00;96632.97;5105468;28;20230;-72
2023/04/17 08:47:39;;;;;;;1.40;1.30;;;;;;;11.15;100.00;96639.63;5097863;28;20207;-72
2023/04/17 08:50:10;;;;;;;1.03;0.70;;;;;;;11.25;100.00;96634.13;5100646;28;20209;-72
2023/04/17 08:52:41;;;;;;;0.83;0.83;;;;;;;11.30;100.00;96637.94;5101663;27;20255;-73
2023/04/17 08:55:08;;;;;;;4.53;1.07;;;;;;;11.45;100.00;96638.00;5104104;27;20542;-72
2023/04/17 08:57:36;;;;;;;3.90;1.30;;;;;;;11.42;100.00;96641.81;5101727;27;20206;-72
2023/04/17 09:00:10;;;;;;;0.67;0.67;;;;;;;11.16;100.00;96643.91;5104621;27;20210;-73
2023/04/17 09:02:52;;;;;;;2.27;1.00;;;;;;;11.61;100.00;96636.16;5102416;27;20219;-72
2023/04/17 09:05:19;;;;;;;1.00;0.93;;;;;;;11.55;100.00;96640.28;5102720;27;20244;-74
2023/04/17 09:07:48;;;;;;;1.97;1.27;;;;;;;11.69;100.00;96644.00;5101822;27;20203;-72
2023/04/17 09:10:14;;;;;;;1.57;1.47;;;;;;;11.97;100.00;96634.59;5102568;27;20202;-72
2023/04/17 09:12:41;;;;;;;1.70;0.60;;;;;;;11.90;100.00;96636.28;5101456;27;20219;-73
2023/04/17 09:15:16;;;;;;;1.20;0.80;;;;;;;12.24;100.00;96632.22;5104485;27;20801;-74
2023/04/17 09:17:42;;;;;;;0.53;0.53;;;;;;;12.34;100.00;96630.16;5101004;27;20198;-72
2023/04/17 09:20:11;;;;;;;1.33;0.60;;;;;;;12.19;100.00;96621.38;5110122;27;20198;-74
2023/04/17 09:22:39;;;;;;;0.97;0.93;;;;;;;12.40;100.00;96630.28;5101855;27;20703;-74
2023/04/17 09:25:15;;;;;;;0.90;0.90;;;;;;;12.21;100.00;96625.47;5109790;27;20667;-74
2023/04/17 09:27:42;;;;;;;0.70;0.70;;;;;;;12.16;100.00;96634.13;5101014;27;20230;-74
2023/04/17 09:30:09;;;;;;;0.97;0.97;;;;;;;11.87;100.00;96641.91;5109555;27;20206;-72
2023/04/17 09:32:36;;;;;;;1.50;1.03;;;;;;;11.99;100.00;96635.22;5099534;27;20223;-72
2023/04/17 09:35:04;;;;;;;0.50;0.50;;;;;;;12.00;98.73;96636.88;5103824;27;20195;-74
2023/04/17 09:37:50;;;;;;;0.50;0.50;;;;;;;12.34;100.00;96630.97;5100949;27;20223;-72
2023/04/17 09:40:19;;;;;;;3.50;0.60;;;;;;;12.34;100.00;96630.97;5100792;27;20199;-73
2023/04/17 09:42:57;;;;;;;0.70;0.70;;;;;;;12.36;97.07;96628.97;5101271;27;20785;-73
2023/04/17 09:45:24;;;;;;;1.90;1.13;;;;;;;12.11;100.00;96626.72;5102238;27;20195;-72
2023/04/17 09:47:54;;;;;;;0.50;0.43;;;;;;;12.25;97.09;96632.03;5101750;27;20214;-72
2023/04/17 09:50:23;;;;;;;1.27;0.63;;;;;;;12.30;95.25;96631.53;5101703;27;21218;-71
2023/04/17 09:52:51;;;;;;;2.27;1.10;;;;;;;12.45;95.71;96627.91;5101389;27;20235;-73
2023/04/17 09:55:25;;;;;;;2.50;1.47;;;;;;;12.88;93.14;96619.25;5101183;27;20198;-72
2023/04/17 09:57:54;;;;;;;0.93;0.93;;;;;;;13.34;88.36;96618.03;5110452;27;20244;-72
2023/04/17 10:00:22;;;;;;;0.73;0.70;;;;;;;13.64;95.63;96623.09;5101504;27;20321;-73
2023/04/17 10:02:50;;;;;;;0.63;0.63;;;;;;;13.41;90.36;96620.59;5100779;27;20234;-72
2023/04/17 10:05:17;;;;;;;0.83;0.83;;;;;;;13.91;91.38;96619.75;5107673;27;20210;-72
